Barfleur — FNIE — position and weather

sailwx.info

Track history (hours):
 
Tides and Currents Weather Stations Pressure Air Temp Water Temp Dewpoint Dewpoint Depression Visibility Wind Speed Wind Dir Waves Ship Positions

Barfleur

Operator: Brittany Ferries

Last reported at 2017-Sep-22 02:01 UTC. Time now 2017-Sep-23 14:50 UTC.
Position N 50°42' W 001°59'.

Length 158 m; draft 5 m.

Type: Passenger vessel. MMSI: 227289000.

Date/timePositionNaut miles runAvg speedWind from/ knotsBaromVisibWave heightAir tempDewpointWater temp
2017-Sep-22 02:01N 50°42' W 001°59'0 0.0
2017-Sep-22 01:31N 50°42' W 001°59'0 0.0
2017-Sep-22 01:00N 50°42' W 001°59'0 0.0
2017-Sep-22 00:31N 50°42' W 001°59'0 0.0
2017-Sep-22 00:01N 50°42' W 001°59'0 0.0
2017-Sep-21 23:31N 50°42' W 001°59'0 0.0
2017-Sep-21 23:01N 50°42' W 001°59'0 0.0
2017-Sep-21 22:31N 50°42' W 001°59'0 0.0
2017-Sep-21 22:00N 50°42' W 001°59'0 0.0
2017-Sep-21 21:30N 50°42' W 001°59'0 0.0
2017-Sep-21 21:00N 50°42' W 001°59'0 0.9
2017-Sep-21 20:31N 50°42' W 001°59'611.5
2017-Sep-21 20:00N 50°38' W 001°54'918.0
2017-Sep-21 19:30N 50°29' W 001°51'0 0.0
2017-Sep-21 08:33N 50°29' W 001°51'117.2
2017-Sep-21 08:30N 50°30' W 001°51'816.5
2017-Sep-21 08:00N 50°37' W 001°54'510.9
2017-Sep-21 07:30N 50°42' W 001°58'1 1.4
2017-Sep-21 07:00N 50°42' W 001°59'0 0.0
2017-Sep-21 06:31N 50°42' W 001°59'0 0.0
2017-Sep-21 06:01N 50°42' W 001°59'1 2.3
2017-Sep-21 05:30N 50°42' W 001°58'612.1
2017-Sep-21 05:00N 50°37' W 001°54'815.8
2017-Sep-21 04:30N 50°29' W 001°51'4313.1
2017-Sep-21 01:11N 49°45' W 001°48'1 4.1
2017-Sep-21 01:00N 49°45' W 001°47'2 3.1
2017-Sep-21 00:30N 49°45' W 001°45'1 2.3
2017-Sep-21 00:00N 49°44' W 001°43'1 1.8
2017-Sep-20 23:30N 49°44' W 001°42'1 1.4
2017-Sep-20 23:00N 49°43' W 001°41'0 1.0
2017-Sep-20 22:30N 49°43' W 001°41'0 0.6
2017-Sep-20 22:00N 49°43' W 001°40'0 0.2
2017-Sep-20 21:30N 49°43' W 001°40'0 0.3
2017-Sep-20 21:00N 49°43' W 001°41'3 6.4
2017-Sep-20 20:30N 49°40' W 001°38'2 3.0
2017-Sep-20 20:00N 49°39' W 001°37'0 0.0
2017-Sep-20 19:30N 49°39' W 001°37'0 0.0
2017-Sep-20 19:01N 49°39' W 001°37'0 0.0
2017-Sep-20 18:30N 49°39' W 001°37'0 0.0
2017-Sep-20 18:00N 49°39' W 001°37'0 0.0
2017-Sep-20 17:30N 49°39' W 001°37'0 0.0
2017-Sep-20 17:00N 49°39' W 001°37'0 0.0
2017-Sep-20 16:30N 49°39' W 001°37'0 0.0
2017-Sep-20 16:01N 49°39' W 001°37'0 0.0
2017-Sep-20 15:30N 49°39' W 001°37'0 0.0
2017-Sep-20 15:00N 49°39' W 001°37'0 0.0
2017-Sep-20 14:01N 49°39' W 001°37'0 0.0
2017-Sep-20 13:30N 49°39' W 001°37'0 0.0
2017-Sep-20 13:00N 49°39' W 001°37'0 0.0
2017-Sep-20 12:30N 49°39' W 001°37'0 0.0
2017-Sep-20 12:00N 49°39' W 001°37'0 0.4
2017-Sep-20 11:30N 49°39' W 001°37'713.2
2017-Sep-20 11:01N 49°46' W 001°36'816.5
2017-Sep-20 10:31N 49°54' W 001°38'917.9
2017-Sep-20 10:01N 50°03' W 001°40'918.0
2017-Sep-20 09:30N 50°12' W 001°42'1918.1
2017-Sep-20 08:28N 50°30' W 001°50'817.4
2017-Sep-20 08:00N 50°37' W 001°54'611.4
2017-Sep-20 07:30N 50°42' W 001°58'1 1.4
2017-Sep-20 07:00N 50°42' W 001°59'0 0.0
2017-Sep-20 06:30N 50°42' W 001°59'0 0.0
2017-Sep-20 06:00N 50°42' W 001°59'2 3.1
2017-Sep-20 05:30N 50°42' W 001°57'713.8
2017-Sep-20 05:00N 50°35' W 001°53'714.2
2017-Sep-20 04:30N 50°28' W 001°52'1514.7
2017-Sep-20 03:28N 50°13' W 001°48'714.5
2017-Sep-20 03:01N 50°07' W 001°47'714.2
2017-Sep-20 02:31N 49°60' W 001°46'714.2
2017-Sep-20 02:00N 49°53' W 001°44'714.1
2017-Sep-20 01:30N 49°46' W 001°43'2 3.3
2017-Sep-20 01:00N 49°44' W 001°43'1 2.8
2017-Sep-20 00:30N 49°44' W 001°41'1 2.4
2017-Sep-20 00:00N 49°43' W 001°40'1 1.9
2017-Sep-19 23:30N 49°43' W 001°38'1 1.4
2017-Sep-19 23:00N 49°43' W 001°37'0 0.7
2017-Sep-19 22:30N 49°43' W 001°36'0 0.1
2017-Sep-19 22:00N 49°43' W 001°36'0 0.7
2017-Sep-19 21:30N 49°43' W 001°37'1 1.5
2017-Sep-19 21:00N 49°44' W 001°38'4 7.5
2017-Sep-19 20:30N 49°40' W 001°37'1 2.2
2017-Sep-19 20:00N 49°39' W 001°37'0 0.0
2017-Sep-19 19:30N 49°39' W 001°37'0 0.0
2017-Sep-19 19:00N 49°39' W 001°37'0 0.0
2017-Sep-19 18:30N 49°39' W 001°37'0 0.0
2017-Sep-19 18:00N 49°39' W 001°37'0 0.0
2017-Sep-19 17:30N 49°39' W 001°37'0 0.0
2017-Sep-19 17:00N 49°39' W 001°37'0 0.0
2017-Sep-19 16:30N 49°39' W 001°37'0 0.0
2017-Sep-19 16:00N 49°39' W 001°37'0 0.0
2017-Sep-19 15:30N 49°39' W 001°37'0 0.0
2017-Sep-19 15:00N 49°39' W 001°37'0 0.0
2017-Sep-19 14:30N 49°39' W 001°37'0 0.0
2017-Sep-19 14:00N 49°39' W 001°37'0 0.0
2017-Sep-19 13:30N 49°39' W 001°37'0 0.0
2017-Sep-19 13:00N 49°39' W 001°37'0 0.0
2017-Sep-19 12:30N 49°39' W 001°37'0 0.0
2017-Sep-19 12:01N 49°39' W 001°37'0 0.0
2017-Sep-19 11:30N 49°39' W 001°37'611.4
2017-Sep-19 11:00N 49°44' W 001°41'918.1
2017-Sep-19 10:30N 49°53' W 001°43'918.4
2017-Sep-19 10:00N 50°02' W 001°46'918.6
2017-Sep-19 09:30N 50°11' W 001°48'1717.8
2017-Sep-19 08:33N 50°28' W 001°51'317.6
2017-Sep-19 08:24N 50°30' W 001°52'717.5
2017-Sep-19 08:01N 50°37' W 001°54'611.6
2017-Sep-19 07:30N 50°42' W 001°58'1 1.6
2017-Sep-19 07:00N 50°42' W 001°59'0 0.0
2017-Sep-19 06:30N 50°42' W 001°59'0 0.0
2017-Sep-19 06:00N 50°42' W 001°59'0 0.0
2017-Sep-19 05:30N 50°42' W 001°59'0 0.0
2017-Sep-19 05:00N 50°42' W 001°59'0 0.0
2017-Sep-19 04:30N 50°42' W 001°59'0 0.0
2017-Sep-19 04:00N 50°42' W 001°59'0 0.0
2017-Sep-19 03:30N 50°42' W 001°59'0 0.0
2017-Sep-19 03:00N 50°42' W 001°59'0 0.0
2017-Sep-19 02:30N 50°42' W 001°59'0 0.0
2017-Sep-19 02:00N 50°42' W 001°59'0 0.0
2017-Sep-19 01:30N 50°42' W 001°59'0 0.0
2017-Sep-19 01:00N 50°42' W 001°59'0 0.0
2017-Sep-19 00:30N 50°42' W 001°59'0 0.0
2017-Sep-19 00:00N 50°42' W 001°59'0 0.0
2017-Sep-18 23:30N 50°42' W 001°59'0 0.0
2017-Sep-18 23:00N 50°42' W 001°59'0 0.0
2017-Sep-18 22:30N 50°42' W 001°59'0 0.0
2017-Sep-18 22:00N 50°42' W 001°59'0 0.0
2017-Sep-18 21:30N 50°42' W 001°59'0 0.0
2017-Sep-18 21:00N 50°42' W 001°59'1 2.0
2017-Sep-18 20:30N 50°42' W 001°58'5 9.7
2017-Sep-18 20:00N 50°38' W 001°54'917.8
2017-Sep-18 19:30N 50°29' W 001°51'2617.6
2017-Sep-18 18:02N 50°04' W 001°46'117.2
2017-Sep-18 18:00N 50°03' W 001°46'817.1
2017-Sep-18 17:31N 49°55' W 001°43'816.9
2017-Sep-18 17:01N 49°46' W 001°41'714.6
2017-Sep-18 16:30N 49°40' W 001°37'1 1.4
2017-Sep-18 16:00N 49°39' W 001°37'0 0.0
2017-Sep-18 15:30N 49°39' W 001°37'0 0.0
2017-Sep-18 15:00N 49°39' W 001°37'0 0.0
2017-Sep-18 14:30N 49°39' W 001°37'0 0.0
2017-Sep-18 14:00N 49°39' W 001°37'0 0.0
2017-Sep-18 13:30N 49°39' W 001°37'0 0.0
2017-Sep-18 13:00N 49°39' W 001°37'0 0.0
2017-Sep-18 12:30N 49°39' W 001°37'0 0.0
2017-Sep-18 12:00N 49°39' W 001°37'0 0.2
2017-Sep-18 11:30N 49°39' W 001°37'611.3
2017-Sep-18 11:01N 49°44' W 001°42'816.8
2017-Sep-18 10:31N 49°52' W 001°43'918.4
2017-Sep-18 10:00N 50°01' W 001°45'918.5
2017-Sep-18 09:30N 50°10' W 001°47'1818.4
2017-Sep-18 08:31N 50°28' W 001°51'118.3
2017-Sep-18 08:29N 50°29' W 001°52'917.9
2017-Sep-18 08:01N 50°37' W 001°54'611.6
2017-Sep-18 07:31N 50°42' W 001°59'1 1.2
2017-Sep-18 07:01N 50°42' W 001°59'0 0.0
2017-Sep-18 06:31N 50°42' W 001°59'0 0.0
2017-Sep-18 06:01N 50°42' W 001°59'0 0.0
2017-Sep-18 05:30N 50°42' W 001°59'0 0.0
2017-Sep-18 05:01N 50°42' W 001°59'0 0.0
2017-Sep-18 04:30N 50°42' W 001°59'0 0.0
2017-Sep-18 04:01N 50°42' W 001°59'0 0.0
2017-Sep-18 03:31N 50°42' W 001°59'0 0.0
2017-Sep-18 03:01N 50°42' W 001°59'0 0.0
2017-Sep-18 02:30N 50°42' W 001°59'0 0.0
2017-Sep-18 02:00N 50°42' W 001°59'0 0.0
2017-Sep-18 01:30N 50°42' W 001°59'0 0.0
2017-Sep-18 01:01N 50°42' W 001°59'0 0.0
2017-Sep-18 00:30N 50°42' W 001°59'0 0.0
2017-Sep-18 00:01N 50°42' W 001°59'0 0.0
2017-Sep-17 23:31N 50°42' W 001°59'0 0.0
2017-Sep-17 23:00N 50°42' W 001°59'0 0.0
2017-Sep-17 22:31N 50°42' W 001°59'0 0.0
2017-Sep-17 22:01N 50°42' W 001°59'0 0.0
2017-Sep-17 21:30N 50°42' W 001°59'0 0.0
2017-Sep-17 21:01N 50°42' W 001°59'1 2.3
2017-Sep-17 20:30N 50°42' W 001°58'612.6
2017-Sep-17 20:01N 50°36' W 001°54'917.8
2017-Sep-17 19:31N 50°28' W 001°51'2817.4
2017-Sep-17 17:55N 50°00' W 001°44'717.3
2017-Sep-17 17:31N 49°53' W 001°42'817.0
2017-Sep-17 17:01N 49°45' W 001°40'612.6
2017-Sep-17 16:30N 49°39' W 001°37'0 0.3
2017-Sep-17 16:00N 49°39' W 001°37'0 0.0
2017-Sep-17 15:30N 49°39' W 001°37'0 0.0
2017-Sep-17 15:00N 49°39' W 001°37'0 0.0
2017-Sep-17 14:30N 49°39' W 001°37'0 0.0
2017-Sep-17 14:00N 49°39' W 001°37'0 0.0
2017-Sep-17 13:30N 49°39' W 001°37'0 0.0
2017-Sep-17 13:00N 49°39' W 001°37'0 0.0
2017-Sep-17 12:30N 49°39' W 001°37'0 0.0
2017-Sep-17 12:01N 49°39' W 001°37'0 0.1
2017-Sep-17 11:30N 49°39' W 001°37'511.0
2017-Sep-17 11:00N 49°44' W 001°40'917.3
2017-Sep-17 10:31N 49°52' W 001°43'917.8
2017-Sep-17 10:00N 50°01' W 001°46'918.4
2017-Sep-17 09:30N 50°10' W 001°47'918.4
2017-Sep-17 09:01N 50°19' W 001°49'1018.4
2017-Sep-17 08:30N 50°29' W 001°52'918.3
2017-Sep-17 08:00N 50°37' W 001°54'611.3
2017-Sep-17 07:30N 50°42' W 001°58'1 1.3
2017-Sep-17 07:00N 50°42' W 001°59'0 0.0
2017-Sep-17 06:30N 50°42' W 001°59'0 0.0
2017-Sep-17 06:00N 50°42' W 001°59'0 0.0
2017-Sep-17 05:30N 50°42' W 001°59'0 0.0
2017-Sep-17 05:00N 50°42' W 001°59'0 0.0
2017-Sep-17 04:30N 50°42' W 001°59'0 0.0
2017-Sep-17 04:00N 50°42' W 001°59'0 0.0
2017-Sep-17 03:30N 50°42' W 001°59'0 0.0
2017-Sep-17 03:00N 50°42' W 001°59'0 0.0
2017-Sep-17 02:30N 50°42' W 001°59'0 0.0
2017-Sep-17 02:00N 50°42' W 001°59'0 0.0
2017-Sep-17 01:30N 50°42' W 001°59'0 0.0
2017-Sep-17 01:00N 50°42' W 001°59'0 0.0
2017-Sep-17 00:30N 50°42' W 001°59'0 0.0
2017-Sep-17 00:00N 50°42' W 001°59'0 0.0
2017-Sep-16 23:30N 50°42' W 001°59'0 0.0
2017-Sep-16 23:00N 50°42' W 001°59'0 0.0
2017-Sep-16 22:30N 50°42' W 001°59'0 0.0
2017-Sep-16 22:00N 50°42' W 001°59'0 0.0
2017-Sep-16 21:30N 50°42' W 001°59'0 0.0
2017-Sep-16 21:00N 50°42' W 001°59'1 1.4
2017-Sep-16 20:30N 50°42' W 001°58'611.3
2017-Sep-16 20:01N 50°37' W 001°54'917.9
2017-Sep-16 19:30N 50°29' W 001°51'1 0.1
2017-Sep-16 08:27N 50°29' W 001°52'818.6
2017-Sep-16 08:00N 50°38' W 001°54'611.0
2017-Sep-16 07:30N 50°42' W 001°59'1 1.2
2017-Sep-16 07:00N 50°42' W 001°59'0 0.0
2017-Sep-16 06:30N 50°42' W 001°59'0 0.0
2017-Sep-16 06:00N 50°42' W 001°59'0 0.0
2017-Sep-16 05:30N 50°42' W 001°59'0 0.0
2017-Sep-16 05:00N 50°42' W 001°59'0 0.0
2017-Sep-16 04:30N 50°42' W 001°59'0 0.0
2017-Sep-16 04:00N 50°42' W 001°59'0 0.0
2017-Sep-16 03:30N 50°42' W 001°59'0 0.0
2017-Sep-16 03:00N 50°42' W 001°59'0 0.0
2017-Sep-16 02:30N 50°42' W 001°59'0 0.0
2017-Sep-16 02:00N 50°42' W 001°59'0 0.0
2017-Sep-16 01:30N 50°42' W 001°59'0 0.0
2017-Sep-16 01:00N 50°42' W 001°59'0 0.0
2017-Sep-16 00:30N 50°42' W 001°59'0 0.0
2017-Sep-16 00:00N 50°42' W 001°59'0 0.0
2017-Sep-15 23:30N 50°42' W 001°59'0 0.0
2017-Sep-15 23:00N 50°42' W 001°59'0 0.0
2017-Sep-15 22:30N 50°42' W 001°59'0 0.0
2017-Sep-15 22:00N 50°42' W 001°59'0 0.0
2017-Sep-15 21:30N 50°42' W 001°59'0 0.0
2017-Sep-15 21:00N 50°42' W 001°59'0 0.2
2017-Sep-15 20:31N 50°42' W 001°60'4 8.8
2017-Sep-15 20:00N 50°39' W 001°55'816.6
2017-Sep-15 19:30N 50°31' W 001°52'2917.7
2017-Sep-15 17:52N 50°02' W 001°45'617.5
2017-Sep-15 17:30N 49°56' W 001°44'917.4
2017-Sep-15 17:01N 49°48' W 001°41'815.9
2017-Sep-15 16:30N 49°40' W 001°38'1 2.4
2017-Sep-15 16:00N 49°39' W 001°37'0 0.0
2017-Sep-15 15:30N 49°39' W 001°37'0 0.0
2017-Sep-15 15:00N 49°39' W 001°37'0 0.0
2017-Sep-15 14:30N 49°39' W 001°37'0 0.0
2017-Sep-15 14:00N 49°39' W 001°37'0 0.0
2017-Sep-15 13:30N 49°39' W 001°37'0 0.0
2017-Sep-15 13:00N 49°39' W 001°37'0 0.0
2017-Sep-15 12:30N 49°39' W 001°37'0 0.0
2017-Sep-15 12:01N 49°39' W 001°37'0 0.0
2017-Sep-15 11:30N 49°39' W 001°37'510.9
2017-Sep-15 11:00N 49°44' W 001°41'918.0
2017-Sep-15 10:31N 49°53' W 001°42'918.0
2017-Sep-15 10:00N 50°01' W 001°45'918.0
2017-Sep-15 09:30N 50°10' W 001°48'2018.1
2017-Sep-15 08:24N 50°30' W 001°53'718.8
2017-Sep-15 08:01N 50°37' W 001°54'611.4
2017-Sep-15 07:30N 50°42' W 001°59'1 1.2
2017-Sep-15 07:00N 50°42' W 001°59'0 0.0
2017-Sep-15 06:30N 50°42' W 001°59'0 0.0
2017-Sep-15 06:00N 50°42' W 001°59'0 0.0
2017-Sep-15 05:30N 50°42' W 001°59'0 0.0
2017-Sep-15 05:00N 50°42' W 001°59'0 0.0
2017-Sep-15 04:30N 50°42' W 001°59'0 0.0
2017-Sep-15 04:00N 50°42' W 001°59'0 0.0
2017-Sep-15 03:30N 50°42' W 001°59'0 0.0
2017-Sep-15 03:00N 50°42' W 001°59'0 0.0
2017-Sep-15 02:30N 50°42' W 001°59'0 0.0
2017-Sep-15 02:00N 50°42' W 001°59'0 0.0
2017-Sep-15 01:30N 50°42' W 001°59'0 0.0
2017-Sep-15 01:00N 50°42' W 001°59'0 0.0
2017-Sep-15 00:30N 50°42' W 001°59'0 0.0
2017-Sep-15 00:00N 50°42' W 001°59'0 0.0
2017-Sep-14 23:30N 50°42' W 001°59'0 0.0
2017-Sep-14 23:00N 50°42' W 001°59'0 0.0
2017-Sep-14 22:30N 50°42' W 001°59'0 0.0
2017-Sep-14 22:00N 50°42' W 001°59'0 0.0
2017-Sep-14 21:30N 50°42' W 001°59'0 0.0
2017-Sep-14 21:00N 50°42' W 001°59'0 0.5
2017-Sep-14 20:30N 50°42' W 001°59'5 9.3
2017-Sep-14 20:00N 50°39' W 001°55'916.8
2017-Sep-14 19:28N 50°30' W 001°51'2717.3
2017-Sep-14 17:56N 50°04' W 001°43'717.1
2017-Sep-14 17:30N 49°57' W 001°41'917.3
2017-Sep-14 17:00N 49°48' W 001°37'816.7
2017-Sep-14 16:30N 49°40' W 001°36'1 2.6
2017-Sep-14 16:01N 49°39' W 001°37'0 0.0
2017-Sep-14 15:30N 49°39' W 001°37'0 0.0
2017-Sep-14 15:00N 49°39' W 001°37'0 0.0
2017-Sep-14 14:30N 49°39' W 001°37'0 0.0
2017-Sep-14 14:00N 49°39' W 001°37'0 0.0
2017-Sep-14 13:31N 49°39' W 001°37'0 0.0
2017-Sep-14 13:01N 49°39' W 001°37'0 0.0
2017-Sep-14 12:30N 49°39' W 001°37'0 0.0
2017-Sep-14 12:00N 49°39' W 001°37'0 0.7
2017-Sep-14 11:30N 49°39' W 001°37'714.0
2017-Sep-14 11:00N 49°46' W 001°41'917.9
2017-Sep-14 10:30N 49°55' W 001°42'917.7
2017-Sep-14 10:01N 50°03' W 001°45'917.5
2017-Sep-14 09:30N 50°12' W 001°48'1717.8
2017-Sep-14 08:32N 50°29' W 001°52'118.3
2017-Sep-14 08:31N 50°29' W 001°52'918.5
2017-Sep-14 08:01N 50°38' W 001°55'510.0
2017-Sep-14 07:30N 50°42' W 001°59'0 0.1
2017-Sep-14 07:00N 50°42' W 001°59'0 0.0
2017-Sep-14 06:31N 50°42' W 001°59'0 0.0
2017-Sep-14 06:01N 50°42' W 001°59'1 2.6
2017-Sep-14 05:31N 50°42' W 001°57'611.3
2017-Sep-14 05:00N 50°37' W 001°53'714.4
2017-Sep-14 04:30N 50°30' W 001°52'1515.8
2017-Sep-14 03:33N 50°15' W 001°53'116.3
2017-Sep-14 03:30N 50°14' W 001°53'815.3
2017-Sep-14 03:00N 50°06' W 001°51'714.3
2017-Sep-14 02:31N 50°00' W 001°46'612.5
2017-Sep-14 02:01N 49°54' W 001°45'612.4
2017-Sep-14 01:30N 49°48' W 001°45'5 9.6
2017-Sep-14 01:00N 49°43' W 001°42'4 7.4
2017-Sep-14 00:31N 49°43' W 001°37'3 5.4
2017-Sep-14 00:01N 49°45' W 001°33'2 4.6
2017-Sep-13 23:30N 49°45' W 001°37'2 4.0
2017-Sep-13 23:01N 49°46' W 001°40'2 3.3
2017-Sep-13 22:30N 49°46' W 001°42'1 2.8
2017-Sep-13 22:01N 49°46' W 001°45'1 2.0
2017-Sep-13 21:30N 49°46' W 001°46'4 8.7
2017-Sep-13 21:00N 49°43' W 001°42'510.0
2017-Sep-13 20:30N 49°39' W 001°37'0 0.3
2017-Sep-13 20:00N 49°39' W 001°37'0 0.0
2017-Sep-13 19:30N 49°39' W 001°37'0 0.0
2017-Sep-13 19:00N 49°39' W 001°37'0 0.0
2017-Sep-13 18:30N 49°39' W 001°37'0 0.0
2017-Sep-13 18:00N 49°39' W 001°37'0 0.0
2017-Sep-13 17:31N 49°39' W 001°37'0 0.0
2017-Sep-13 17:00N 49°39' W 001°37'0 0.0
2017-Sep-13 16:30N 49°39' W 001°37'0 0.0
2017-Sep-13 16:00N 49°39' W 001°37'0 0.0
2017-Sep-13 15:30N 49°39' W 001°37'0 0.0
2017-Sep-13 15:00N 49°39' W 001°37'0 0.0
2017-Sep-13 14:31N 49°39' W 001°37'0 0.0
2017-Sep-13 14:00N 49°39' W 001°37'0 0.0
2017-Sep-13 13:30N 49°39' W 001°37'0 0.0
2017-Sep-13 13:01N 49°39' W 001°37'0 0.0
2017-Sep-13 12:30N 49°39' W 001°37'0 0.0
2017-Sep-13 12:01N 49°39' W 001°37'510.2
2017-Sep-13 11:31N 49°43' W 001°41'1019.2
2017-Sep-13 11:01N 49°52' W 001°48'917.0
2017-Sep-13 10:31N 49°59' W 001°53'815.3
2017-Sep-13 10:00N 50°07' W 001°54'816.1
2017-Sep-13 09:30N 50°15' W 001°54'1416.3
2017-Sep-13 08:38N 50°29' W 001°53'216.5
2017-Sep-13 08:30N 50°31' W 001°53'816.8
2017-Sep-13 08:00N 50°40' W 001°56'4 7.4
2017-Sep-13 07:31N 50°42' W 001°59'0 0.0
2017-Sep-13 07:00N 50°42' W 001°59'0 0.0
2017-Sep-13 06:30N 50°42' W 001°59'0 0.0
2017-Sep-13 06:01N 50°42' W 001°59'1 2.1
2017-Sep-13 05:30N 50°42' W 001°58'511.0
2017-Sep-13 05:00N 50°37' W 001°54'714.0
2017-Sep-13 04:30N 50°31' W 001°51'2414.5
2017-Sep-13 02:52N 50°07' W 001°49'514.0
2017-Sep-13 02:30N 50°02' W 001°50'714.3
2017-Sep-13 02:01N 49°55' W 001°52'714.4
2017-Sep-13 01:31N 49°48' W 001°54'4 7.6
2017-Sep-13 01:01N 49°45' W 001°50'4 8.1
2017-Sep-13 00:31N 49°43' W 001°44'4 7.2
2017-Sep-13 00:01N 49°43' W 001°39'4 7.6
2017-Sep-12 23:31N 49°45' W 001°34'2 3.7
2017-Sep-12 23:00N 49°47' W 001°32'3 5.7
2017-Sep-12 22:31N 49°46' W 001°36'2 4.8
2017-Sep-12 22:00N 49°46' W 001°40'2 4.2
2017-Sep-12 21:30N 49°45' W 001°43'2 3.7
2017-Sep-12 21:00N 49°43' W 001°43'510.8
2017-Sep-12 20:30N 49°39' W 001°37'0 1.0
2017-Sep-12 20:01N 49°39' W 001°37'0 0.0
2017-Sep-12 19:30N 49°39' W 001°37'0 0.0
2017-Sep-12 19:01N 49°39' W 001°37'0 0.0
2017-Sep-12 18:30N 49°39' W 001°37'0 0.0
2017-Sep-12 18:01N 49°39' W 001°37'0 0.0
2017-Sep-12 17:30N 49°39' W 001°37'0 0.0
2017-Sep-12 17:00N 49°39' W 001°37'0 0.0
2017-Sep-12 16:30N 49°39' W 001°37'0 0.0
2017-Sep-12 16:00N 49°39' W 001°37'0 0.0
2017-Sep-12 15:31N 49°39' W 001°37'0 0.0
2017-Sep-12 15:00N 49°39' W 001°37'0 0.0
2017-Sep-12 14:31N 49°39' W 001°37'0 0.0
2017-Sep-12 14:00N 49°39' W 001°37'0 0.0
2017-Sep-12 13:31N 49°39' W 001°37'0 0.0
2017-Sep-12 13:00N 49°39' W 001°37'0 0.0
2017-Sep-12 12:30N 49°39' W 001°37'0 0.0
2017-Sep-12 12:01N 49°39' W 001°37'1 1.4
2017-Sep-12 11:31N 49°40' W 001°37'714.4
2017-Sep-12 11:01N 49°47' W 001°36'918.3
2017-Sep-12 10:31N 49°56' W 001°39'918.0
2017-Sep-12 10:00N 50°04' W 001°43'917.7
2017-Sep-12 09:30N 50°13' W 001°47'917.7
2017-Sep-12 09:01N 50°22' W 001°49'917.7
2017-Sep-12 08:30N 50°30' W 001°52'917.6
2017-Sep-12 08:00N 50°39' W 001°55'5 9.1
2017-Sep-12 07:30N 50°42' W 001°59'0 0.2
2017-Sep-12 07:00N 50°42' W 001°59'0 0.0
2017-Sep-12 06:30N 50°42' W 001°59'0 0.0
2017-Sep-12 06:00N 50°42' W 001°59'0 0.0
2017-Sep-12 05:30N 50°42' W 001°59'0 0.0
2017-Sep-12 05:00N 50°42' W 001°59'0 0.0
2017-Sep-12 04:30N 50°42' W 001°59'0 0.0
2017-Sep-12 04:01N 50°42' W 001°59'0 0.0
2017-Sep-12 03:31N 50°42' W 001°59'0 0.0
2017-Sep-12 03:00N 50°42' W 001°59'0 0.0
2017-Sep-12 02:30N 50°42' W 001°59'  
Track history (hours):
 
Tides and Currents Weather Stations Pressure Air Temp Water Temp Dewpoint Dewpoint Depression Visibility Wind Speed Wind Dir Waves Ship Positions

Barfleur

Operator: Brittany Ferries

Last reported at 2017-Sep-22 02:01 UTC. Time now 2017-Sep-23 14:50 UTC.
Position N 50°42' W 001°59'.

Length 158 m; draft 5 m.

Type: Passenger vessel. MMSI: 227289000.

Date/timePositionNaut miles runAvg speedWind from/ knotsBaromVisibWave heightAir tempDewpointWater temp
2017-Sep-22 02:01N 50°42' W 001°59'0 0.0
2017-Sep-22 01:31N 50°42' W 001°59'0 0.0
2017-Sep-22 01:00N 50°42' W 001°59'0 0.0
2017-Sep-22 00:31N 50°42' W 001°59'0 0.0
2017-Sep-22 00:01N 50°42' W 001°59'0 0.0
2017-Sep-21 23:31N 50°42' W 001°59'0 0.0
2017-Sep-21 23:01N 50°42' W 001°59'0 0.0
2017-Sep-21 22:31N 50°42' W 001°59'0 0.0
2017-Sep-21 22:00N 50°42' W 001°59'0 0.0
2017-Sep-21 21:30N 50°42' W 001°59'0 0.0
2017-Sep-21 21:00N 50°42' W 001°59'0 0.9
2017-Sep-21 20:31N 50°42' W 001°59'611.5
2017-Sep-21 20:00N 50°38' W 001°54'918.0
2017-Sep-21 19:30N 50°29' W 001°51'0 0.0
2017-Sep-21 08:33N 50°29' W 001°51'117.2
2017-Sep-21 08:30N 50°30' W 001°51'816.5
2017-Sep-21 08:00N 50°37' W 001°54'510.9
2017-Sep-21 07:30N 50°42' W 001°58'1 1.4
2017-Sep-21 07:00N 50°42' W 001°59'0 0.0
2017-Sep-21 06:31N 50°42' W 001°59'0 0.0
2017-Sep-21 06:01N 50°42' W 001°59'1 2.3
2017-Sep-21 05:30N 50°42' W 001°58'612.1
2017-Sep-21 05:00N 50°37' W 001°54'815.8
2017-Sep-21 04:30N 50°29' W 001°51'4313.1
2017-Sep-21 01:11N 49°45' W 001°48'1 4.1
2017-Sep-21 01:00N 49°45' W 001°47'2 3.1
2017-Sep-21 00:30N 49°45' W 001°45'1 2.3
2017-Sep-21 00:00N 49°44' W 001°43'1 1.8
2017-Sep-20 23:30N 49°44' W 001°42'1 1.4
2017-Sep-20 23:00N 49°43' W 001°41'0 1.0
2017-Sep-20 22:30N 49°43' W 001°41'0 0.6
2017-Sep-20 22:00N 49°43' W 001°40'0 0.2
2017-Sep-20 21:30N 49°43' W 001°40'0 0.3
2017-Sep-20 21:00N 49°43' W 001°41'3 6.4
2017-Sep-20 20:30N 49°40' W 001°38'2 3.0
2017-Sep-20 20:00N 49°39' W 001°37'0 0.0
2017-Sep-20 19:30N 49°39' W 001°37'0 0.0
2017-Sep-20 19:01N 49°39' W 001°37'0 0.0
2017-Sep-20 18:30N 49°39' W 001°37'0 0.0
2017-Sep-20 18:00N 49°39' W 001°37'0 0.0
2017-Sep-20 17:30N 49°39' W 001°37'0 0.0
2017-Sep-20 17:00N 49°39' W 001°37'0 0.0
2017-Sep-20 16:30N 49°39' W 001°37'0 0.0
2017-Sep-20 16:01N 49°39' W 001°37'0 0.0
2017-Sep-20 15:30N 49°39' W 001°37'0 0.0
2017-Sep-20 15:00N 49°39' W 001°37'0 0.0
2017-Sep-20 14:01N 49°39' W 001°37'0 0.0
2017-Sep-20 13:30N 49°39' W 001°37'0 0.0
2017-Sep-20 13:00N 49°39' W 001°37'0 0.0
2017-Sep-20 12:30N 49°39' W 001°37'0 0.0
2017-Sep-20 12:00N 49°39' W 001°37'0 0.4
2017-Sep-20 11:30N 49°39' W 001°37'713.2
2017-Sep-20 11:01N 49°46' W 001°36'816.5
2017-Sep-20 10:31N 49°54' W 001°38'917.9
2017-Sep-20 10:01N 50°03' W 001°40'918.0
2017-Sep-20 09:30N 50°12' W 001°42'1918.1
2017-Sep-20 08:28N 50°30' W 001°50'817.4
2017-Sep-20 08:00N 50°37' W 001°54'611.4
2017-Sep-20 07:30N 50°42' W 001°58'1 1.4
2017-Sep-20 07:00N 50°42' W 001°59'0 0.0
2017-Sep-20 06:30N 50°42' W 001°59'0 0.0
2017-Sep-20 06:00N 50°42' W 001°59'2 3.1
2017-Sep-20 05:30N 50°42' W 001°57'713.8
2017-Sep-20 05:00N 50°35' W 001°53'714.2
2017-Sep-20 04:30N 50°28' W 001°52'1514.7
2017-Sep-20 03:28N 50°13' W 001°48'714.5
2017-Sep-20 03:01N 50°07' W 001°47'714.2
2017-Sep-20 02:31N 49°60' W 001°46'714.2
2017-Sep-20 02:00N 49°53' W 001°44'714.1
2017-Sep-20 01:30N 49°46' W 001°43'2 3.3
2017-Sep-20 01:00N 49°44' W 001°43'1 2.8
2017-Sep-20 00:30N 49°44' W 001°41'1 2.4
2017-Sep-20 00:00N 49°43' W 001°40'1 1.9
2017-Sep-19 23:30N 49°43' W 001°38'1 1.4
2017-Sep-19 23:00N 49°43' W 001°37'0 0.7
2017-Sep-19 22:30N 49°43' W 001°36'0 0.1
2017-Sep-19 22:00N 49°43' W 001°36'0 0.7
2017-Sep-19 21:30N 49°43' W 001°37'1 1.5
2017-Sep-19 21:00N 49°44' W 001°38'4 7.5
2017-Sep-19 20:30N 49°40' W 001°37'1 2.2
2017-Sep-19 20:00N 49°39' W 001°37'0 0.0
2017-Sep-19 19:30N 49°39' W 001°37'0 0.0
2017-Sep-19 19:00N 49°39' W 001°37'0 0.0
2017-Sep-19 18:30N 49°39' W 001°37'0 0.0
2017-Sep-19 18:00N 49°39' W 001°37'0 0.0
2017-Sep-19 17:30N 49°39' W 001°37'0 0.0
2017-Sep-19 17:00N 49°39' W 001°37'0 0.0
2017-Sep-19 16:30N 49°39' W 001°37'0 0.0
2017-Sep-19 16:00N 49°39' W 001°37'0 0.0
2017-Sep-19 15:30N 49°39' W 001°37'0 0.0
2017-Sep-19 15:00N 49°39' W 001°37'0 0.0
2017-Sep-19 14:30N 49°39' W 001°37'0 0.0
2017-Sep-19 14:00N 49°39' W 001°37'0 0.0
2017-Sep-19 13:30N 49°39' W 001°37'0 0.0
2017-Sep-19 13:00N 49°39' W 001°37'0 0.0
2017-Sep-19 12:30N 49°39' W 001°37'0 0.0
2017-Sep-19 12:01N 49°39' W 001°37'0 0.0
2017-Sep-19 11:30N 49°39' W 001°37'611.4
2017-Sep-19 11:00N 49°44' W 001°41'918.1
2017-Sep-19 10:30N 49°53' W 001°43'918.4
2017-Sep-19 10:00N 50°02' W 001°46'918.6
2017-Sep-19 09:30N 50°11' W 001°48'1717.8
2017-Sep-19 08:33N 50°28' W 001°51'317.6
2017-Sep-19 08:24N 50°30' W 001°52'717.5
2017-Sep-19 08:01N 50°37' W 001°54'611.6
2017-Sep-19 07:30N 50°42' W 001°58'1 1.6
2017-Sep-19 07:00N 50°42' W 001°59'0 0.0
2017-Sep-19 06:30N 50°42' W 001°59'0 0.0
2017-Sep-19 06:00N 50°42' W 001°59'0 0.0
2017-Sep-19 05:30N 50°42' W 001°59'0 0.0
2017-Sep-19 05:00N 50°42' W 001°59'0 0.0
2017-Sep-19 04:30N 50°42' W 001°59'0 0.0
2017-Sep-19 04:00N 50°42' W 001°59'0 0.0
2017-Sep-19 03:30N 50°42' W 001°59'0 0.0
2017-Sep-19 03:00N 50°42' W 001°59'0 0.0
2017-Sep-19 02:30N 50°42' W 001°59'0 0.0
2017-Sep-19 02:00N 50°42' W 001°59'0 0.0
2017-Sep-19 01:30N 50°42' W 001°59'0 0.0
2017-Sep-19 01:00N 50°42' W 001°59'0 0.0
2017-Sep-19 00:30N 50°42' W 001°59'0 0.0
2017-Sep-19 00:00N 50°42' W 001°59'0 0.0
2017-Sep-18 23:30N 50°42' W 001°59'0 0.0
2017-Sep-18 23:00N 50°42' W 001°59'0 0.0
2017-Sep-18 22:30N 50°42' W 001°59'0 0.0
2017-Sep-18 22:00N 50°42' W 001°59'0 0.0
2017-Sep-18 21:30N 50°42' W 001°59'0 0.0
2017-Sep-18 21:00N 50°42' W 001°59'1 2.0
2017-Sep-18 20:30N 50°42' W 001°58'5 9.7
2017-Sep-18 20:00N 50°38' W 001°54'917.8
2017-Sep-18 19:30N 50°29' W 001°51'2617.6
2017-Sep-18 18:02N 50°04' W 001°46'117.2
2017-Sep-18 18:00N 50°03' W 001°46'817.1
2017-Sep-18 17:31N 49°55' W 001°43'816.9
2017-Sep-18 17:01N 49°46' W 001°41'714.6
2017-Sep-18 16:30N 49°40' W 001°37'1 1.4
2017-Sep-18 16:00N 49°39' W 001°37'0 0.0
2017-Sep-18 15:30N 49°39' W 001°37'0 0.0
2017-Sep-18 15:00N 49°39' W 001°37'0 0.0
2017-Sep-18 14:30N 49°39' W 001°37'0 0.0
2017-Sep-18 14:00N 49°39' W 001°37'0 0.0
2017-Sep-18 13:30N 49°39' W 001°37'0 0.0
2017-Sep-18 13:00N 49°39' W 001°37'0 0.0
2017-Sep-18 12:30N 49°39' W 001°37'0 0.0
2017-Sep-18 12:00N 49°39' W 001°37'0 0.2
2017-Sep-18 11:30N 49°39' W 001°37'611.3
2017-Sep-18 11:01N 49°44' W 001°42'816.8
2017-Sep-18 10:31N 49°52' W 001°43'918.4
2017-Sep-18 10:00N 50°01' W 001°45'918.5
2017-Sep-18 09:30N 50°10' W 001°47'1818.4
2017-Sep-18 08:31N 50°28' W 001°51'118.3
2017-Sep-18 08:29N 50°29' W 001°52'917.9
2017-Sep-18 08:01N 50°37' W 001°54'611.6
2017-Sep-18 07:31N 50°42' W 001°59'1 1.2
2017-Sep-18 07:01N 50°42' W 001°59'0 0.0
2017-Sep-18 06:31N 50°42' W 001°59'0 0.0
2017-Sep-18 06:01N 50°42' W 001°59'0 0.0
2017-Sep-18 05:30N 50°42' W 001°59'0 0.0
2017-Sep-18 05:01N 50°42' W 001°59'0 0.0
2017-Sep-18 04:30N 50°42' W 001°59'0 0.0
2017-Sep-18 04:01N 50°42' W 001°59'0 0.0
2017-Sep-18 03:31N 50°42' W 001°59'0 0.0
2017-Sep-18 03:01N 50°42' W 001°59'0 0.0
2017-Sep-18 02:30N 50°42' W 001°59'0 0.0
2017-Sep-18 02:00N 50°42' W 001°59'0 0.0
2017-Sep-18 01:30N 50°42' W 001°59'0 0.0
2017-Sep-18 01:01N 50°42' W 001°59'0 0.0
2017-Sep-18 00:30N 50°42' W 001°59'0 0.0
2017-Sep-18 00:01N 50°42' W 001°59'0 0.0
2017-Sep-17 23:31N 50°42' W 001°59'0 0.0
2017-Sep-17 23:00N 50°42' W 001°59'0 0.0
2017-Sep-17 22:31N 50°42' W 001°59'0 0.0
2017-Sep-17 22:01N 50°42' W 001°59'0 0.0
2017-Sep-17 21:30N 50°42' W 001°59'0 0.0
2017-Sep-17 21:01N 50°42' W 001°59'1 2.3
2017-Sep-17 20:30N 50°42' W 001°58'612.6
2017-Sep-17 20:01N 50°36' W 001°54'917.8
2017-Sep-17 19:31N 50°28' W 001°51'2817.4
2017-Sep-17 17:55N 50°00' W 001°44'717.3
2017-Sep-17 17:31N 49°53' W 001°42'817.0
2017-Sep-17 17:01N 49°45' W 001°40'612.6
2017-Sep-17 16:30N 49°39' W 001°37'0 0.3
2017-Sep-17 16:00N 49°39' W 001°37'0 0.0
2017-Sep-17 15:30N 49°39' W 001°37'0 0.0
2017-Sep-17 15:00N 49°39' W 001°37'0 0.0
2017-Sep-17 14:30N 49°39' W 001°37'0 0.0
2017-Sep-17 14:00N 49°39' W 001°37'0 0.0
2017-Sep-17 13:30N 49°39' W 001°37'0 0.0
2017-Sep-17 13:00N 49°39' W 001°37'0 0.0
2017-Sep-17 12:30N 49°39' W 001°37'0 0.0
2017-Sep-17 12:01N 49°39' W 001°37'0 0.1
2017-Sep-17 11:30N 49°39' W 001°37'511.0
2017-Sep-17 11:00N 49°44' W 001°40'917.3
2017-Sep-17 10:31N 49°52' W 001°43'917.8
2017-Sep-17 10:00N 50°01' W 001°46'918.4
2017-Sep-17 09:30N 50°10' W 001°47'918.4
2017-Sep-17 09:01N 50°19' W 001°49'1018.4
2017-Sep-17 08:30N 50°29' W 001°52'918.3
2017-Sep-17 08:00N 50°37' W 001°54'611.3
2017-Sep-17 07:30N 50°42' W 001°58'1 1.3
2017-Sep-17 07:00N 50°42' W 001°59'0 0.0
2017-Sep-17 06:30N 50°42' W 001°59'0 0.0
2017-Sep-17 06:00N 50°42' W 001°59'0 0.0
2017-Sep-17 05:30N 50°42' W 001°59'0 0.0
2017-Sep-17 05:00N 50°42' W 001°59'0 0.0
2017-Sep-17 04:30N 50°42' W 001°59'0 0.0
2017-Sep-17 04:00N 50°42' W 001°59'0 0.0
2017-Sep-17 03:30N 50°42' W 001°59'0 0.0
2017-Sep-17 03:00N 50°42' W 001°59'0 0.0
2017-Sep-17 02:30N 50°42' W 001°59'0 0.0
2017-Sep-17 02:00N 50°42' W 001°59'0 0.0
2017-Sep-17 01:30N 50°42' W 001°59'0 0.0
2017-Sep-17 01:00N 50°42' W 001°59'0 0.0
2017-Sep-17 00:30N 50°42' W 001°59'0 0.0
2017-Sep-17 00:00N 50°42' W 001°59'0 0.0
2017-Sep-16 23:30N 50°42' W 001°59'0 0.0
2017-Sep-16 23:00N 50°42' W 001°59'0 0.0
2017-Sep-16 22:30N 50°42' W 001°59'0 0.0
2017-Sep-16 22:00N 50°42' W 001°59'0 0.0
2017-Sep-16 21:30N 50°42' W 001°59'0 0.0
2017-Sep-16 21:00N 50°42' W 001°59'1 1.4
2017-Sep-16 20:30N 50°42' W 001°58'611.3
2017-Sep-16 20:01N 50°37' W 001°54'917.9
2017-Sep-16 19:30N 50°29' W 001°51'1 0.1
2017-Sep-16 08:27N 50°29' W 001°52'818.6
2017-Sep-16 08:00N 50°38' W 001°54'611.0
2017-Sep-16 07:30N 50°42' W 001°59'1 1.2
2017-Sep-16 07:00N 50°42' W 001°59'0 0.0
2017-Sep-16 06:30N 50°42' W 001°59'0 0.0
2017-Sep-16 06:00N 50°42' W 001°59'0 0.0
2017-Sep-16 05:30N 50°42' W 001°59'0 0.0
2017-Sep-16 05:00N 50°42' W 001°59'0 0.0
2017-Sep-16 04:30N 50°42' W 001°59'0 0.0
2017-Sep-16 04:00N 50°42' W 001°59'0 0.0
2017-Sep-16 03:30N 50°42' W 001°59'0 0.0
2017-Sep-16 03:00N 50°42' W 001°59'0 0.0
2017-Sep-16 02:30N 50°42' W 001°59'0 0.0
2017-Sep-16 02:00N 50°42' W 001°59'0 0.0
2017-Sep-16 01:30N 50°42' W 001°59'0 0.0
2017-Sep-16 01:00N 50°42' W 001°59'0 0.0
2017-Sep-16 00:30N 50°42' W 001°59'0 0.0
2017-Sep-16 00:00N 50°42' W 001°59'0 0.0
2017-Sep-15 23:30N 50°42' W 001°59'0 0.0
2017-Sep-15 23:00N 50°42' W 001°59'0 0.0
2017-Sep-15 22:30N 50°42' W 001°59'0 0.0
2017-Sep-15 22:00N 50°42' W 001°59'0 0.0
2017-Sep-15 21:30N 50°42' W 001°59'0 0.0
2017-Sep-15 21:00N 50°42' W 001°59'0 0.2
2017-Sep-15 20:31N 50°42' W 001°60'4 8.8
2017-Sep-15 20:00N 50°39' W 001°55'816.6
2017-Sep-15 19:30N 50°31' W 001°52'2917.7
2017-Sep-15 17:52N 50°02' W 001°45'617.5
2017-Sep-15 17:30N 49°56' W 001°44'917.4
2017-Sep-15 17:01N 49°48' W 001°41'815.9
2017-Sep-15 16:30N 49°40' W 001°38'1 2.4
2017-Sep-15 16:00N 49°39' W 001°37'0 0.0
2017-Sep-15 15:30N 49°39' W 001°37'0 0.0
2017-Sep-15 15:00N 49°39' W 001°37'0 0.0
2017-Sep-15 14:30N 49°39' W 001°37'0 0.0
2017-Sep-15 14:00N 49°39' W 001°37'0 0.0
2017-Sep-15 13:30N 49°39' W 001°37'0 0.0
2017-Sep-15 13:00N 49°39' W 001°37'0 0.0
2017-Sep-15 12:30N 49°39' W 001°37'0 0.0
2017-Sep-15 12:01N 49°39' W 001°37'0 0.0
2017-Sep-15 11:30N 49°39' W 001°37'510.9
2017-Sep-15 11:00N 49°44' W 001°41'918.0
2017-Sep-15 10:31N 49°53' W 001°42'918.0
2017-Sep-15 10:00N 50°01' W 001°45'918.0
2017-Sep-15 09:30N 50°10' W 001°48'2018.1
2017-Sep-15 08:24N 50°30' W 001°53'718.8
2017-Sep-15 08:01N 50°37' W 001°54'611.4
2017-Sep-15 07:30N 50°42' W 001°59'1 1.2
2017-Sep-15 07:00N 50°42' W 001°59'0 0.0
2017-Sep-15 06:30N 50°42' W 001°59'0 0.0
2017-Sep-15 06:00N 50°42' W 001°59'0 0.0
2017-Sep-15 05:30N 50°42' W 001°59'0 0.0
2017-Sep-15 05:00N 50°42' W 001°59'0 0.0
2017-Sep-15 04:30N 50°42' W 001°59'0 0.0
2017-Sep-15 04:00N 50°42' W 001°59'0 0.0
2017-Sep-15 03:30N 50°42' W 001°59'0 0.0
2017-Sep-15 03:00N 50°42' W 001°59'0 0.0
2017-Sep-15 02:30N 50°42' W 001°59'0 0.0
2017-Sep-15 02:00N 50°42' W 001°59'0 0.0
2017-Sep-15 01:30N 50°42' W 001°59'0 0.0
2017-Sep-15 01:00N 50°42' W 001°59'0 0.0
2017-Sep-15 00:30N 50°42' W 001°59'0 0.0
2017-Sep-15 00:00N 50°42' W 001°59'0 0.0
2017-Sep-14 23:30N 50°42' W 001°59'0 0.0
2017-Sep-14 23:00N 50°42' W 001°59'0 0.0
2017-Sep-14 22:30N 50°42' W 001°59'0 0.0
2017-Sep-14 22:00N 50°42' W 001°59'0 0.0
2017-Sep-14 21:30N 50°42' W 001°59'0 0.0
2017-Sep-14 21:00N 50°42' W 001°59'0 0.5
2017-Sep-14 20:30N 50°42' W 001°59'5 9.3
2017-Sep-14 20:00N 50°39' W 001°55'916.8
2017-Sep-14 19:28N 50°30' W 001°51'2717.3
2017-Sep-14 17:56N 50°04' W 001°43'717.1
2017-Sep-14 17:30N 49°57' W 001°41'917.3
2017-Sep-14 17:00N 49°48' W 001°37'816.7
2017-Sep-14 16:30N 49°40' W 001°36'1 2.6
2017-Sep-14 16:01N 49°39' W 001°37'0 0.0
2017-Sep-14 15:30N 49°39' W 001°37'0 0.0
2017-Sep-14 15:00N 49°39' W 001°37'0 0.0
2017-Sep-14 14:30N 49°39' W 001°37'0 0.0
2017-Sep-14 14:00N 49°39' W 001°37'0 0.0
2017-Sep-14 13:31N 49°39' W 001°37'0 0.0
2017-Sep-14 13:01N 49°39' W 001°37'0 0.0
2017-Sep-14 12:30N 49°39' W 001°37'0 0.0
2017-Sep-14 12:00N 49°39' W 001°37'0 0.7
2017-Sep-14 11:30N 49°39' W 001°37'714.0
2017-Sep-14 11:00N 49°46' W 001°41'917.9
2017-Sep-14 10:30N 49°55' W 001°42'917.7
2017-Sep-14 10:01N 50°03' W 001°45'917.5
2017-Sep-14 09:30N 50°12' W 001°48'1717.8
2017-Sep-14 08:32N 50°29' W 001°52'118.3
2017-Sep-14 08:31N 50°29' W 001°52'918.5
2017-Sep-14 08:01N 50°38' W 001°55'510.0
2017-Sep-14 07:30N 50°42' W 001°59'0 0.1
2017-Sep-14 07:00N 50°42' W 001°59'0 0.0
2017-Sep-14 06:31N 50°42' W 001°59'0 0.0
2017-Sep-14 06:01N 50°42' W 001°59'1 2.6
2017-Sep-14 05:31N 50°42' W 001°57'611.3
2017-Sep-14 05:00N 50°37' W 001°53'714.4
2017-Sep-14 04:30N 50°30' W 001°52'1515.8
2017-Sep-14 03:33N 50°15' W 001°53'116.3
2017-Sep-14 03:30N 50°14' W 001°53'815.3
2017-Sep-14 03:00N 50°06' W 001°51'714.3
2017-Sep-14 02:31N 50°00' W 001°46'612.5
2017-Sep-14 02:01N 49°54' W 001°45'612.4
2017-Sep-14 01:30N 49°48' W 001°45'5 9.6
2017-Sep-14 01:00N 49°43' W 001°42'4 7.4
2017-Sep-14 00:31N 49°43' W 001°37'3 5.4
2017-Sep-14 00:01N 49°45' W 001°33'2 4.6
2017-Sep-13 23:30N 49°45' W 001°37'2 4.0
2017-Sep-13 23:01N 49°46' W 001°40'2 3.3
2017-Sep-13 22:30N 49°46' W 001°42'1 2.8
2017-Sep-13 22:01N 49°46' W 001°45'1 2.0
2017-Sep-13 21:30N 49°46' W 001°46'4 8.7
2017-Sep-13 21:00N 49°43' W 001°42'510.0
2017-Sep-13 20:30N 49°39' W 001°37'0 0.3
2017-Sep-13 20:00N 49°39' W 001°37'0 0.0
2017-Sep-13 19:30N 49°39' W 001°37'0 0.0
2017-Sep-13 19:00N 49°39' W 001°37'0 0.0
2017-Sep-13 18:30N 49°39' W 001°37'0 0.0
2017-Sep-13 18:00N 49°39' W 001°37'0 0.0
2017-Sep-13 17:31N 49°39' W 001°37'0 0.0
2017-Sep-13 17:00N 49°39' W 001°37'0 0.0
2017-Sep-13 16:30N 49°39' W 001°37'0 0.0
2017-Sep-13 16:00N 49°39' W 001°37'0 0.0
2017-Sep-13 15:30N 49°39' W 001°37'0 0.0
2017-Sep-13 15:00N 49°39' W 001°37'0 0.0
2017-Sep-13 14:31N 49°39' W 001°37'0 0.0
2017-Sep-13 14:00N 49°39' W 001°37'0 0.0
2017-Sep-13 13:30N 49°39' W 001°37'0 0.0
2017-Sep-13 13:01N 49°39' W 001°37'0 0.0
2017-Sep-13 12:30N 49°39' W 001°37'0 0.0
2017-Sep-13 12:01N 49°39' W 001°37'510.2
2017-Sep-13 11:31N 49°43' W 001°41'1019.2
2017-Sep-13 11:01N 49°52' W 001°48'917.0
2017-Sep-13 10:31N 49°59' W 001°53'815.3
2017-Sep-13 10:00N 50°07' W 001°54'816.1
2017-Sep-13 09:30N 50°15' W 001°54'1416.3
2017-Sep-13 08:38N 50°29' W 001°53'216.5
2017-Sep-13 08:30N 50°31' W 001°53'816.8
2017-Sep-13 08:00N 50°40' W 001°56'4 7.4
2017-Sep-13 07:31N 50°42' W 001°59'0 0.0
2017-Sep-13 07:00N 50°42' W 001°59'0 0.0
2017-Sep-13 06:30N 50°42' W 001°59'0 0.0
2017-Sep-13 06:01N 50°42' W 001°59'1 2.1
2017-Sep-13 05:30N 50°42' W 001°58'511.0
2017-Sep-13 05:00N 50°37' W 001°54'714.0
2017-Sep-13 04:30N 50°31' W 001°51'2414.5
2017-Sep-13 02:52N 50°07' W 001°49'514.0
2017-Sep-13 02:30N 50°02' W 001°50'714.3
2017-Sep-13 02:01N 49°55' W 001°52'714.4
2017-Sep-13 01:31N 49°48' W 001°54'4 7.6
2017-Sep-13 01:01N 49°45' W 001°50'4 8.1
2017-Sep-13 00:31N 49°43' W 001°44'4 7.2
2017-Sep-13 00:01N 49°43' W 001°39'4 7.6
2017-Sep-12 23:31N 49°45' W 001°34'2 3.7
2017-Sep-12 23:00N 49°47' W 001°32'3 5.7
2017-Sep-12 22:31N 49°46' W 001°36'2 4.8
2017-Sep-12 22:00N 49°46' W 001°40'2 4.2
2017-Sep-12 21:30N 49°45' W 001°43'2 3.7
2017-Sep-12 21:00N 49°43' W 001°43'510.8
2017-Sep-12 20:30N 49°39' W 001°37'0 1.0
2017-Sep-12 20:01N 49°39' W 001°37'0 0.0
2017-Sep-12 19:30N 49°39' W 001°37'0 0.0
2017-Sep-12 19:01N 49°39' W 001°37'0 0.0
2017-Sep-12 18:30N 49°39' W 001°37'0 0.0
2017-Sep-12 18:01N 49°39' W 001°37'0 0.0
2017-Sep-12 17:30N 49°39' W 001°37'0 0.0
2017-Sep-12 17:00N 49°39' W 001°37'0 0.0
2017-Sep-12 16:30N 49°39' W 001°37'0 0.0
2017-Sep-12 16:00N 49°39' W 001°37'0 0.0
2017-Sep-12 15:31N 49°39' W 001°37'0 0.0
2017-Sep-12 15:00N 49°39' W 001°37'0 0.0
2017-Sep-12 14:31N 49°39' W 001°37'0 0.0
2017-Sep-12 14:00N 49°39' W 001°37'0 0.0
2017-Sep-12 13:31N 49°39' W 001°37'0 0.0
2017-Sep-12 13:00N 49°39' W 001°37'0 0.0
2017-Sep-12 12:30N 49°39' W 001°37'0 0.0
2017-Sep-12 12:01N 49°39' W 001°37'1 1.4
2017-Sep-12 11:31N 49°40' W 001°37'714.4
2017-Sep-12 11:01N 49°47' W 001°36'918.3
2017-Sep-12 10:31N 49°56' W 001°39'918.0
2017-Sep-12 10:00N 50°04' W 001°43'917.7
2017-Sep-12 09:30N 50°13' W 001°47'917.7
2017-Sep-12 09:01N 50°22' W 001°49'917.7
2017-Sep-12 08:30N 50°30' W 001°52'917.6
2017-Sep-12 08:00N 50°39' W 001°55'5 9.1
2017-Sep-12 07:30N 50°42' W 001°59'0 0.2
2017-Sep-12 07:00N 50°42' W 001°59'0 0.0
2017-Sep-12 06:30N 50°42' W 001°59'0 0.0
2017-Sep-12 06:00N 50°42' W 001°59'0 0.0
2017-Sep-12 05:30N 50°42' W 001°59'0 0.0
2017-Sep-12 05:00N 50°42' W 001°59'0 0.0
2017-Sep-12 04:30N 50°42' W 001°59'0 0.0
2017-Sep-12 04:01N 50°42' W 001°59'0 0.0
2017-Sep-12 03:31N 50°42' W 001°59'0 0.0
2017-Sep-12 03:00N 50°42' W 001°59'0 0.0
2017-Sep-12 02:30N 50°42' W 001°59'  

Dump ship's entire track history